19 Feb 2019 08:47 UTC 2019050+08:47 UTC

Overview Datums Bench Marks Data Query Site Visit Daily QC Messages Attributes

130: GBRA Station #2

28° 24' 26" N   96° 42' 43" W
GBRA2
Guadalupe Blanco River Authority (GBRA) GBRA

Station Information

GBRA Station #2
GBRA Station #2
more pictures
 
Station Name:GBRA Station #2
DNR ID:130
Location:28° 24' 26" N, 96° 42' 43" W

Water Level Forecasts

Latest Observations

Series Metric English Marine Observed at
Water Temperature 16.1 °C 61.0 °F 61.0 °F Feb 19 02:36 CST
00h06m ago
Salinity 12.200 psu 12.200 psu 12.200 psu Feb 19 02:36 CST
00h07m ago

Maps

GBRA Station #2
All Stations in Area
Entire Network
 

Recent Observations

Date/Time Water
Temp (°F)
Sal (psu)
Feb 19 02:00 CST 61.0 12.400
Feb 19 01:00 CST 61.2 12.600
Feb 19 00:00 CST 61.5 12.600
Feb 18 23:00 CST 61.7 13.000
Feb 18 22:00 CST 62.1 13.100
Feb 18 21:00 CST 62.4 13.000
Feb 18 20:00 CST 62.8 12.900
Feb 18 19:00 CST 63.0 13.000
Feb 18 18:00 CST 63.0 13.100
Feb 18 17:00 CST 63.1 13.200
Feb 18 16:00 CST 63.1 12.100
Feb 18 15:00 CST 63.5 12.000
Feb 18 14:00 CST 62.6 11.400
Feb 18 13:00 CST 62.4 12.500
Feb 18 12:00 CST 61.5 12.600
Feb 18 11:00 CST 60.6 12.300
Feb 18 10:00 CST 59.5 12.200
Feb 18 09:00 CST 59.2 11.600
Feb 18 08:00 CST 59.5 12.400
Feb 18 07:00 CST 59.4 10.000
Feb 18 06:00 CST 59.7 10.400
Feb 18 05:00 CST 60.1 9.700
Feb 18 04:00 CST 60.4 9.600
Feb 18 03:00 CST 61.0 9.600
Feb 18 02:00 CST 61.0 9.500

Historical Data Availability